Time;durP1;ratioP1;P1;durP2;ratioP2;P2;SDS_P1;SDS_P2;PMS_P1;PMS_P2;Temp;Humidity;BMP_temperature;BMP_pressure;BME280_temperature;BME280_humidity;BME280_pressure;Samples;Min_cycle;Max_cycle;Signal;HPM_P1;HPM_P2
2023/07/08 04:30:24;;;;;;;7.45;3.38;;;22.60;68.10;;;;;;5937846;23;20104;-79
2023/07/08 04:32:51;;;;;;;5.35;2.85;;;22.70;68.40;;;;;;4914082;29;20044;-79
2023/07/08 04:35:17;;;;;;;8.77;3.15;;;22.70;68.10;;;;;;4912886;29;20186;-79
2023/07/08 04:37:43;;;;;;;6.50;3.25;;;22.80;67.80;;;;;;4898899;29;20060;-79
2023/07/08 04:40:18;;;;;;;6.78;3.33;;;22.80;68.50;;;;;;4904615;29;20059;-80
2023/07/08 04:42:47;;;;;;;10.23;3.30;;;22.70;68.10;;;;;;4899079;29;20025;-79
2023/07/08 04:45:13;;;;;;;6.95;3.10;;;22.70;68.00;;;;;;4898699;29;20059;-80
2023/07/08 04:47:39;;;;;;;7.25;3.33;;;22.80;68.20;;;;;;4898821;29;20048;-79
2023/07/08 04:50:05;;;;;;;8.55;3.60;;;22.70;67.70;;;;;;4899052;29;20092;-79
2023/07/08 04:52:31;;;;;;;6.75;3.50;;;22.70;68.50;;;;;;4896588;29;20037;-79
2023/07/08 04:54:56;;;;;;;6.95;3.97;;;22.70;68.40;;;;;;4898815;29;20127;-79
2023/07/08 04:57:22;;;;;;;8.30;3.42;;;22.70;68.40;;;;;;4898827;29;20111;-79
2023/07/08 04:59:48;;;;;;;8.65;3.45;;;22.80;68.10;;;;;;4913845;29;20631;-80
2023/07/08 05:02:14;;;;;;;5.50;3.03;;;22.80;67.80;;;;;;4910649;29;20083;-80
2023/07/08 05:04:39;;;;;;;6.35;3.42;;;22.80;68.10;;;;;;4920566;29;20035;-81
2023/07/08 05:07:05;;;;;;;6.90;3.45;;;22.80;68.00;;;;;;4912734;29;20039;-81
2023/07/08 05:09:31;;;;;;;5.55;3.03;;;22.80;67.80;;;;;;4902361;29;20032;-81
2023/07/08 05:11:57;;;;;;;6.47;3.17;;;22.80;68.50;;;;;;4909362;29;20028;-80
2023/07/08 05:14:22;;;;;;;8.52;3.85;;;22.70;68.60;;;;;;4901780;29;20033;-81
2023/07/08 05:16:48;;;;;;;5.85;3.47;;;22.70;68.50;;;;;;4885334;29;20029;-81
2023/07/08 05:19:14;;;;;;;6.05;3.83;;;22.60;68.70;;;;;;4909261;29;20097;-81
2023/07/08 05:21:40;;;;;;;7.00;3.75;;;22.60;69.00;;;;;;4921073;29;20028;-81
2023/07/08 05:24:07;;;;;;;8.45;4.28;;;22.70;69.10;;;;;;4904980;29;20119;-81
2023/07/08 05:26:33;;;;;;;8.57;4.03;;;22.70;68.60;;;;;;4902294;29;20031;-80
2023/07/08 05:28:59;;;;;;;8.40;3.72;;;22.70;68.70;;;;;;4916266;29;20440;-81
2023/07/08 05:31:24;;;;;;;7.65;3.40;;;22.70;68.60;;;;;;4905417;29;20091;-81
2023/07/08 05:33:51;;;;;;;8.60;4.32;;;22.80;68.40;;;;;;4920313;29;20048;-81
2023/07/08 05:36:16;;;;;;;7.50;3.92;;;22.80;68.10;;;;;;4916366;29;20048;-80
2023/07/08 05:38:42;;;;;;;6.68;3.85;;;22.80;68.80;;;;;;4920132;29;20039;-81
2023/07/08 05:41:08;;;;;;;7.43;3.47;;;22.80;68.90;;;;;;4910623;29;20036;-80
2023/07/08 05:43:33;;;;;;;6.95;3.95;;;22.80;68.90;;;;;;4901327;29;20029;-81
2023/07/08 05:46:00;;;;;;;7.45;3.70;;;22.80;68.40;;;;;;4901435;29;20120;-81
2023/07/08 05:48:26;;;;;;;6.68;3.35;;;22.90;68.50;;;;;;4900792;29;20072;-80
2023/07/08 05:50:52;;;;;;;9.15;3.92;;;22.90;68.60;;;;;;4901241;29;20028;-80
2023/07/08 05:53:20;;;;;;;8.85;3.80;;;22.90;68.60;;;;;;4901182;29;20399;-81
2023/07/08 05:55:47;;;;;;;9.63;3.95;;;22.90;68.50;;;;;;4901004;29;20071;-80
2023/07/08 05:58:15;;;;;;;6.38;3.90;;;22.80;68.50;;;;;;4915611;29;20978;-82
2023/07/08 06:00:42;;;;;;;6.93;3.65;;;22.90;68.20;;;;;;4920092;29;20031;-79
2023/07/08 06:03:08;;;;;;;7.95;3.60;;;22.90;68.40;;;;;;4901316;29;20052;-81
2023/07/08 06:05:34;;;;;;;7.03;3.55;;;23.00;67.90;;;;;;4911703;29;20487;-86
2023/07/08 06:08:00;;;;;;;8.23;4.03;;;23.00;68.40;;;;;;4909707;29;20040;-83
2023/07/08 06:10:25;;;;;;;7.93;3.65;;;23.00;68.40;;;;;;4902896;29;20574;-85
2023/07/08 06:12:52;;;;;;;8.65;4.20;;;22.90;68.80;;;;;;4898795;29;20040;-84
2023/07/08 06:15:17;;;;;;;7.00;4.20;;;23.00;68.60;;;;;;4914866;29;20076;-84
2023/07/08 06:17:43;;;;;;;7.95;4.10;;;23.00;68.80;;;;;;4910738;29;20044;-82
2023/07/08 06:20:09;;;;;;;6.70;3.97;;;22.90;69.00;;;;;;4901078;29;20033;-82
2023/07/08 06:22:34;;;;;;;6.35;3.80;;;23.00;68.90;;;;;;4900841;29;20032;-82
2023/07/08 06:25:00;;;;;;;8.02;3.92;;;23.00;68.80;;;;;;4900985;29;20108;-86
2023/07/08 06:27:25;;;;;;;9.57;4.30;;;23.10;68.90;;;;;;4898909;29;20527;-85
2023/07/08 06:29:53;;;;;;;7.50;4.20;;;23.00;68.90;;;;;;4899812;29;20026;-86
2023/07/08 06:32:18;;;;;;;6.30;4.00;;;23.00;68.90;;;;;;4914604;29;20515;-85
2023/07/08 06:34:44;;;;;;;7.18;4.05;;;23.00;69.10;;;;;;4900990;29;20028;-85
2023/07/08 06:37:10;;;;;;;10.10;4.43;;;22.90;69.80;;;;;;4916218;29;20028;-87
2023/07/08 06:39:35;;;;;;;7.57;4.32;;;22.80;69.90;;;;;;4918213;29;20667;-88
2023/07/08 06:42:01;;;;;;;8.23;4.85;;;22.80;70.20;;;;;;4907778;29;20432;-85
2023/07/08 06:44:26;;;;;;;9.20;4.53;;;22.90;70.50;;;;;;4906959;29;20107;-87
2023/07/08 06:46:52;;;;;;;8.25;4.50;;;23.00;70.40;;;;;;4901615;29;20107;-86
2023/07/08 06:49:18;;;;;;;8.00;4.40;;;23.10;69.90;;;;;;4917182;29;20086;-86
2023/07/08 06:51:45;;;;;;;6.50;4.10;;;23.10;69.60;;;;;;4900842;29;20028;-87
2023/07/08 06:54:11;;;;;;;5.85;3.88;;;23.10;69.90;;;;;;4882358;29;20467;-84
2023/07/08 06:56:41;;;;;;;9.95;4.68;;;23.00;70.10;;;;;;4900482;29;20060;-85
2023/07/08 06:59:10;;;;;;;9.60;4.57;;;22.90;70.70;;;;;;4913752;29;20064;-87
2023/07/08 07:01:36;;;;;;;8.55;4.85;;;22.90;70.70;;;;;;4900694;29;20063;-89
2023/07/08 07:04:03;;;;;;;8.65;4.78;;;23.00;70.40;;;;;;4919819;29;20032;-84
2023/07/08 07:06:29;;;;;;;8.85;4.40;;;23.00;70.40;;;;;;4928251;29;20032;-83
2023/07/08 07:08:55;;;;;;;8.40;4.35;;;23.10;70.00;;;;;;4915975;29;20035;-85
2023/07/08 07:11:20;;;;;;;7.75;4.10;;;23.30;69.80;;;;;;4918060;29;20024;-82
2023/07/08 07:13:46;;;;;;;11.35;4.43;;;23.60;69.10;;;;;;4901836;29;20028;-84
2023/07/08 07:16:12;;;;;;;9.27;3.67;;;23.70;68.80;;;;;;4920091;29;20036;-84
2023/07/08 07:18:38;;;;;;;8.50;4.15;;;23.80;68.20;;;;;;4914917;29;20394;-84
2023/07/08 07:21:03;;;;;;;7.93;4.28;;;23.80;68.10;;;;;;4933258;29;20042;-85
2023/07/08 07:23:29;;;;;;;8.95;4.03;;;23.70;68.40;;;;;;4920763;29;20028;-87
2023/07/08 07:25:55;;;;;;;9.65;4.20;;;23.60;68.90;;;;;;4916871;29;20045;-86
2023/07/08 07:28:21;;;;;;;8.13;5.00;;;23.40;68.80;;;;;;4914159;29;20411;-86
2023/07/08 07:30:47;;;;;;;9.30;4.72;;;23.30;69.40;;;;;;4901203;29;20060;-85
2023/07/08 07:33:13;;;;;;;8.80;4.65;;;23.20;69.90;;;;;;4900873;29;20067;-86
2023/07/08 07:35:43;;;;;;;9.20;4.70;;;23.20;70.20;;;;;;4902305;29;20036;-87
2023/07/08 07:38:09;;;;;;;9.30;4.63;;;23.10;70.10;;;;;;4899622;29;20041;-87
2023/07/08 07:40:34;;;;;;;8.93;4.85;;;23.20;70.20;;;;;;4903836;29;20126;-85
2023/07/08 07:43:01;;;;;;;8.30;4.80;;;23.10;70.90;;;;;;4901925;29;20498;-86
2023/07/08 07:45:27;;;;;;;8.10;4.88;;;23.00;71.50;;;;;;4897535;29;20037;-87
2023/07/08 07:47:52;;;;;;;9.23;4.60;;;22.90;72.00;;;;;;4903107;29;20108;-86
2023/07/08 07:50:18;;;;;;;9.05;4.55;;;22.90;71.90;;;;;;4907842;29;20060;-86
2023/07/08 07:52:44;;;;;;;10.48;5.13;;;22.80;72.80;;;;;;4910867;29;20452;-86
2023/07/08 07:55:09;;;;;;;9.18;4.97;;;22.80;73.70;;;;;;4906943;29;20871;-85
2023/07/08 07:57:35;;;;;;;10.30;4.88;;;22.80;73.40;;;;;;4909011;29;20028;-86
2023/07/08 08:00:00;;;;;;;9.18;4.82;;;22.80;73.40;;;;;;4903549;29;20025;-85
2023/07/08 08:02:26;;;;;;;9.00;5.10;;;22.90;73.30;;;;;;4903737;29;20462;-87
2023/07/08 08:04:52;;;;;;;7.95;4.72;;;23.00;73.40;;;;;;4909120;29;20040;-82
2023/07/08 08:07:17;;;;;;;7.95;5.07;;;23.20;73.70;;;;;;4907565;29;20494;-86
2023/07/08 08:09:43;;;;;;;6.55;4.38;;;23.50;73.00;;;;;;4905769;29;20060;-87
2023/07/08 08:12:11;;;;;;;8.88;5.43;;;24.60;71.40;;;;;;4903888;29;20036;-86
2023/07/08 08:14:37;;;;;;;8.20;5.03;;;24.60;70.00;;;;;;4901976;29;20056;-86
2023/07/08 08:17:03;;;;;;;9.75;4.35;;;24.50;70.20;;;;;;4900280;29;20698;-86
2023/07/08 08:19:29;;;;;;;10.98;4.90;;;24.70;69.60;;;;;;4897114;29;20029;-87
2023/07/08 08:21:54;;;;;;;8.70;5.57;;;25.20;69.00;;;;;;4897891;29;20723;-87
2023/07/08 08:24:20;;;;;;;6.85;4.57;;;27.00;66.70;;;;;;4898467;29;20028;-88
2023/07/08 08:26:45;;;;;;;6.57;4.07;;;29.70;58.10;;;;;;4901477;29;20025;-88
2023/07/08 08:29:11;;;;;;;5.90;3.88;;;31.40;53.40;;;;;;4887879;29;20112;-87
2023/07/08 08:31:37;;;;;;;6.88;3.72;;;33.00;49.00;;;;;;4900885;29;20076;-87
2023/07/08 08:34:02;;;;;;;5.63;3.40;;;34.00;46.50;;;;;;4920035;29;20043;-87
2023/07/08 08:36:28;;;;;;;5.05;2.90;;;33.10;45.50;;;;;;4924537;29;20031;-85
2023/07/08 08:38:54;;;;;;;7.32;3.55;;;32.30;48.00;;;;;;4906285;29;20029;-84
2023/07/08 08:41:32;;;;;;;8.93;3.22;;;32.30;46.70;;;;;;4912666;29;20031;-84
2023/07/08 08:43:59;;;;;;;5.88;3.17;;;30.80;49.80;;;;;;4933890;29;20035;-85
2023/07/08 08:46:43;;;;;;;6.63;2.97;;;29.60;52.00;;;;;;4906166;29;20064;-87
2023/07/08 08:49:25;;;;;;;4.28;2.42;;;28.40;54.70;;;;;;4919349;29;20490;-87
2023/07/08 08:51:51;;;;;;;6.25;3.00;;;27.50;56.90;;;;;;4932567;29;20028;-87
2023/07/08 08:54:17;;;;;;;5.88;2.90;;;26.90;59.00;;;;;;4930028;29;20111;-87
2023/07/08 08:56:46;;;;;;;5.93;2.83;;;26.70;60.40;;;;;;4911448;29;20059;-87
2023/07/08 08:59:41;;;;;;;7.80;2.55;;;26.70;61.10;;;;;;4913311;29;20027;-87
2023/07/08 09:02:42;;;;;;;5.50;2.67;;;26.40;61.70;;;;;;4913832;29;20028;-87
2023/07/08 09:05:12;;;;;;;6.80;3.00;;;26.10;62.70;;;;;;4925807;29;20055;-87
2023/07/08 09:08:00;;;;;;;5.07;2.80;;;26.40;63.20;;;;;;4908675;29;20099;-86
2023/07/08 09:10:40;;;;;;;6.95;3.45;;;26.30;62.10;;;;;;4927220;29;20046;-87
2023/07/08 09:13:07;;;;;;;7.68;3.13;;;27.80;61.10;;;;;;4908157;29;20020;-87
2023/07/08 09:15:33;;;;;;;5.78;3.25;;;28.70;57.90;;;;;;4913581;29;20034;-87
2023/07/08 09:18:14;;;;;;;5.40;2.60;;;29.30;55.70;;;;;;4936010;29;20111;-88
2023/07/08 09:20:41;;;;;;;6.60;2.60;;;29.00;55.50;;;;;;4929110;29;20119;-86
2023/07/08 09:23:21;;;;;;;5.43;2.58;;;28.40;54.80;;;;;;4900326;29;20035;-87
2023/07/08 09:26:33;;;;;;;4.88;2.40;;;28.10;54.90;;;;;;4903359;29;20088;-88
2023/07/08 09:28:59;;;;;;;6.35;2.53;;;27.80;56.90;;;;;;4918986;29;20587;-88
2023/07/08 09:31:31;;;;;;;4.95;2.60;;;27.40;57.60;;;;;;4914167;29;20072;-87
2023/07/08 09:34:16;;;;;;;4.68;2.30;;;27.70;57.80;;;;;;4900208;29;20847;-87
2023/07/08 09:36:46;;;;;;;4.80;2.40;;;27.80;57.00;;;;;;4897231;29;20092;-86
2023/07/08 09:39:20;;;;;;;5.10;2.00;;;28.20;57.50;;;;;;4928196;29;20565;-87
2023/07/08 09:41:48;;;;;;;4.47;1.73;;;28.70;56.10;;;;;;4916593;29;20061;-84
2023/07/08 09:44:26;;;;;;;6.20;1.90;;;29.30;52.60;;;;;;4903395;29;20036;-86
2023/07/08 09:46:53;;;;;;;3.55;1.95;;;29.90;50.60;;;;;;4919836;29;20032;-86
2023/07/08 09:49:36;;;;;;;4.03;1.63;;;30.30;50.00;;;;;;4898641;29;20088;-86
2023/07/08 09:52:04;;;;;;;4.65;1.90;;;30.40;48.50;;;;;;4913771;29;20036;-85
2023/07/08 09:54:32;;;;;;;4.97;2.33;;;30.30;49.30;;;;;;4926658;29;20039;-85
2023/07/08 09:57:20;;;;;;;4.32;2.10;;;30.90;48.60;;;;;;4927271;29;20039;-86
2023/07/08 09:59:48;;;;;;;4.20;2.40;;;32.00;47.90;;;;;;4926733;29;20036;-85
2023/07/08 10:02:27;;;;;;;4.95;2.10;;;32.90;44.20;;;;;;4911484;29;20035;-84
2023/07/08 10:04:56;;;;;;;5.68;2.45;;;32.60;43.00;;;;;;4921982;29;20067;-83
2023/07/08 10:07:22;;;;;;;4.35;2.13;;;32.90;43.90;;;;;;4926915;29;20024;-84
2023/07/08 10:09:55;;;;;;;4.50;2.00;;;33.10;43.00;;;;;;4919669;29;20066;-84
2023/07/08 10:12:23;;;;;;;3.83;2.22;;;32.40;43.70;;;;;;4908919;29;20028;-83
2023/07/08 10:15:00;;;;;;;3.42;1.98;;;31.70;44.90;;;;;;4925583;29;20028;-89
2023/07/08 10:17:26;;;;;;;4.07;1.90;;;31.60;45.90;;;;;;4894135;29;20063;-88
2023/07/08 10:19:52;;;;;;;4.28;2.20;;;31.70;45.60;;;;;;4917715;29;20032;-79
2023/07/08 10:22:36;;;;;;;5.80;2.17;;;32.30;45.10;;;;;;4901047;29;20041;-81
2023/07/08 10:25:20;;;;;;;4.55;2.25;;;32.70;44.80;;;;;;4895097;29;20040;-83
2023/07/08 10:28:30;;;;;;;4.45;1.90;;;33.10;43.30;;;;;;4898970;29;20569;-85
2023/07/08 10:31:35;;;;;;;4.95;1.92;;;33.00;43.40;;;;;;4862787;29;20044;-90
2023/07/08 10:34:29;;;;;;;3.35;1.95;;;32.60;42.90;;;;;;4884990;29;20510;-92
2023/07/08 10:37:40;;;;;;;4.50;2.10;;;32.20;42.80;;;;;;4934830;29;20170;-88
2023/07/08 10:40:59;;;;;;;3.45;1.88;;;32.30;43.00;;;;;;4919608;29;20857;-84
2023/07/08 10:43:40;;;;;;;3.72;1.90;;;32.30;42.90;;;;;;4859094;29;20034;-78
2023/07/08 10:46:31;;;;;;;3.80;1.90;;;32.10;43.10;;;;;;4912790;29;20040;-80
2023/07/08 10:49:38;;;;;;;3.70;1.73;;;32.40;43.90;;;;;;4900520;29;20032;-83
2023/07/08 10:52:42;;;;;;;4.10;1.83;;;32.30;41.60;;;;;;4912993;29;20406;-79
2023/07/08 10:55:26;;;;;;;3.72;1.67;;;32.10;44.50;;;;;;4807469;29;20099;-87
2023/07/08 10:58:29;;;;;;;9.00;3.30;;;31.80;42.60;;;;;;4912731;29;20052;-79
2023/07/08 11:01:27;;;;;;;4.60;2.03;;;31.50;43.30;;;;;;4913486;29;20040;-78
2023/07/08 11:04:01;;;;;;;5.28;1.50;;;31.60;43.40;;;;;;4874515;29;20072;-78
2023/07/08 11:06:44;;;;;;;5.00;1.65;;;31.50;43.80;;;;;;4900740;29;20508;-77
2023/07/08 11:09:13;;;;;;;4.43;1.73;;;31.40;44.10;;;;;;4903122;29;20111;-77
2023/07/08 11:11:51;;;;;;;3.88;1.58;;;31.40;44.00;;;;;;4913769;29;20043;-78
2023/07/08 11:14:23;;;;;;;4.13;1.80;;;31.40;43.30;;;;;;4918263;29;20511;-78
2023/07/08 11:17:18;;;;;;;4.75;2.00;;;31.30;43.60;;;;;;4902715;29;20032;-76
2023/07/08 11:19:54;;;;;;;7.55;2.35;;;31.30;44.30;;;;;;4900140;29;20496;-76
2023/07/08 11:22:21;;;;;;;3.65;1.75;;;31.30;44.60;;;;;;4899953;29;20036;-76
2023/07/08 11:24:52;;;;;;;3.50;1.67;;;31.40;45.10;;;;;;4900068;29;20035;-76
2023/07/08 11:27:26;;;;;;;3.30;1.58;;;31.10;44.20;;;;;;4932440;29;20040;-76
2023/07/08 11:30:05;;;;;;;4.05;2.00;;;31.10;45.10;;;;;;4898285;29;20118;-76
2023/07/08 11:32:33;;;;;;;4.65;2.00;;;31.10;44.70;;;;;;4913405;29;20048;-77
2023/07/08 11:35:02;;;;;;;5.68;2.20;;;31.20;45.70;;;;;;4918861;29;20024;-80
2023/07/08 11:37:30;;;;;;;5.07;2.05;;;31.20;44.00;;;;;;4901903;29;20047;-78
2023/07/08 11:40:29;;;;;;;5.13;2.05;;;31.20;43.90;;;;;;4925343;29;20041;-86
2023/07/08 11:43:08;;;;;;;4.30;2.15;;;31.00;42.60;;;;;;4891472;29;20119;-80
2023/07/08 11:45:37;;;;;;;4.75;2.13;;;30.80;44.20;;;;;;4908498;29;20522;-82
2023/07/08 11:48:13;;;;;;;4.65;1.90;;;30.90;45.00;;;;;;4888734;29;20036;-82
2023/07/08 11:50:43;;;;;;;4.07;2.08;;;31.20;44.70;;;;;;4892137;29;20024;-81
2023/07/08 11:53:30;;;;;;;4.57;2.00;;;31.30;43.90;;;;;;4894754;29;20099;-82
2023/07/08 11:56:00;;;;;;;3.78;1.88;;;31.30;44.00;;;;;;4914247;29;20103;-81
2023/07/08 11:58:49;;;;;;;4.68;2.22;;;31.30;44.40;;;;;;4917186;29;20036;-82
2023/07/08 12:01:28;;;;;;;4.97;2.10;;;31.10;44.10;;;;;;4914424;29;20032;-82
2023/07/08 12:04:01;;;;;;;6.78;1.88;;;31.30;44.00;;;;;;4920326;29;20495;-82
2023/07/08 12:06:26;;;;;;;5.10;2.45;;;31.30;44.60;;;;;;4916229;29;20119;-83
2023/07/08 12:08:54;;;;;;;5.20;2.10;;;31.30;43.60;;;;;;4913342;29;20059;-82
2023/07/08 12:11:30;;;;;;;4.40;1.90;;;31.20;43.70;;;;;;4912286;29;20020;-81
2023/07/08 12:14:04;;;;;;;4.22;1.92;;;31.10;44.10;;;;;;4914996;29;20021;-81
2023/07/08 12:16:31;;;;;;;4.85;2.30;;;31.30;45.10;;;;;;4913710;29;20024;-82
2023/07/08 12:18:58;;;;;;;4.22;2.35;;;31.20;44.00;;;;;;4920373;29;20035;-82
2023/07/08 12:21:45;;;;;;;5.32;1.83;;;31.20;42.30;;;;;;4918348;29;20111;-81
2023/07/08 12:24:13;;;;;;;5.28;2.38;;;31.30;43.70;;;;;;4901880;29;20024;-81
2023/07/08 12:26:43;;;;;;;6.32;2.17;;;31.30;41.80;;;;;;4915060;29;20467;-81
2023/07/08 12:29:13;;;;;;;5.25;2.35;;;31.30;43.70;;;;;;4902062;29;20070;-81
2023/07/08 12:31:40;;;;;;;5.97;1.95;;;31.20;43.30;;;;;;4909429;29;20578;-81
2023/07/08 12:34:12;;;;;;;5.20;2.30;;;31.30;43.60;;;;;;4899780;29;20398;-82
2023/07/08 12:36:38;;;;;;;3.55;1.65;;;30.90;43.90;;;;;;4909164;29;20035;-76
2023/07/08 12:39:05;;;;;;;4.40;2.20;;;30.60;44.60;;;;;;4920241;29;20111;-78
2023/07/08 12:41:34;;;;;;;4.13;2.03;;;30.60;44.40;;;;;;4919096;29;20051;-78
2023/07/08 12:44:02;;;;;;;3.90;1.83;;;30.70;44.50;;;;;;4919422;29;20522;-83
2023/07/08 12:46:29;;;;;;;6.30;2.08;;;30.70;45.40;;;;;;4903792;29;20036;-78
2023/07/08 12:48:56;;;;;;;3.88;2.08;;;30.70;45.00;;;;;;4921231;29;20036;-79
2023/07/08 12:51:27;;;;;;;4.78;2.35;;;30.60;45.10;;;;;;4903651;29;20056;-80
2023/07/08 12:53:54;;;;;;;3.63;1.70;;;30.70;44.40;;;;;;4899676;29;20028;-84
2023/07/08 12:56:22;;;;;;;6.63;2.20;;;30.80;46.10;;;;;;4885765;29;20024;-81
2023/07/08 12:58:54;;;;;;;4.88;2.05;;;30.90;44.10;;;;;;4892964;29;20046;-82
2023/07/08 13:01:25;;;;;;;5.57;2.00;;;30.80;43.20;;;;;;4912063;29;20060;-80
2023/07/08 13:03:55;;;;;;;5.70;2.85;;;30.80;44.40;;;;;;4912861;29;20816;-80
2023/07/08 13:06:25;;;;;;;5.00;2.22;;;30.80;44.70;;;;;;4921136;29;20517;-80
2023/07/08 13:08:51;;;;;;;6.40;2.25;;;30.70;45.20;;;;;;4896003;29;20036;-79
2023/07/08 13:11:21;;;;;;;3.63;1.60;;;30.50;45.20;;;;;;4896655;29;20043;-78
2023/07/08 13:14:01;;;;;;;4.38;1.48;;;30.40;45.30;;;;;;4920282;29;20028;-81
2023/07/08 13:16:31;;;;;;;4.35;1.60;;;30.30;45.50;;;;;;4903547;29;20087;-80
2023/07/08 13:18:57;;;;;;;3.35;1.52;;;30.30;45.60;;;;;;4918948;29;20028;-80
2023/07/08 13:21:24;;;;;;;4.35;1.45;;;30.40;46.30;;;;;;4920081;29;20076;-80
2023/07/08 13:23:50;;;;;;;3.50;1.50;;;30.60;45.70;;;;;;4913795;29;20069;-82
2023/07/08 13:26:19;;;;;;;3.70;1.50;;;30.80;45.80;;;;;;4890849;29;20040;-79
2023/07/08 13:28:45;;;;;;;2.97;1.30;;;30.70;44.70;;;;;;4916748;29;20036;-79
2023/07/08 13:31:20;;;;;;;2.95;1.48;;;30.80;45.30;;;;;;4902928;29;20774;-81
2023/07/08 13:33:51;;;;;;;2.92;1.40;;;31.10;45.90;;;;;;4900438;29;20035;-79
2023/07/08 13:36:23;;;;;;;3.55;1.58;;;31.30;45.20;;;;;;4890507;29;20437;-80
2023/07/08 13:38:49;;;;;;;3.63;1.40;;;31.00;44.80;;;;;;4887122;29;20036;-80
2023/07/08 13:41:21;;;;;;;3.42;1.70;;;31.10;45.30;;;;;;4900412;29;20120;-81
2023/07/08 13:43:48;;;;;;;4.32;1.63;;;31.00;45.00;;;;;;4899684;29;20406;-80
2023/07/08 13:46:46;;;;;;;3.00;1.42;;;30.80;45.80;;;;;;4899948;29;20028;-81
2023/07/08 13:49:29;;;;;;;3.65;1.60;;;30.60;45.30;;;;;;4839988;29;20049;-80
2023/07/08 13:52:05;;;;;;;4.07;1.60;;;30.40;46.30;;;;;;4881483;29;20029;-81
2023/07/08 13:54:52;;;;;;;2.88;1.40;;;30.30;46.70;;;;;;4891449;29;20061;-81
2023/07/08 13:57:22;;;;;;;4.45;1.67;;;30.40;46.80;;;;;;4881330;29;20029;-81
2023/07/08 13:59:48;;;;;;;3.33;1.58;;;30.50;46.60;;;;;;4894505;29;20044;-83
2023/07/08 14:02:21;;;;;;;3.45;1.80;;;30.20;46.20;;;;;;4898857;29;20039;-82
2023/07/08 14:04:48;;;;;;;4.93;2.38;;;30.10;46.90;;;;;;4898887;29;20040;-80
2023/07/08 14:07:20;;;;;;;4.18;1.95;;;30.20;47.90;;;;;;4883893;29;20551;-80
2023/07/08 14:09:45;;;;;;;4.00;1.70;;;30.40;47.60;;;;;;4896281;29;20064;-79
2023/07/08 14:12:11;;;;;;;4.13;1.65;;;30.50;47.60;;;;;;4898987;29;20037;-80
2023/07/08 14:14:37;;;;;;;4.30;1.77;;;30.30;47.50;;;;;;4899190;29;20041;-80
2023/07/08 14:17:03;;;;;;;3.90;1.90;;;30.10;47.40;;;;;;4894931;29;20488;-82
2023/07/08 14:19:33;;;;;;;4.70;1.90;;;29.80;48.50;;;;;;4880173;29;20080;-81
2023/07/08 14:22:11;;;;;;;3.63;1.55;;;29.80;48.20;;;;;;4886838;29;20032;-81
2023/07/08 14:24:37;;;;;;;4.18;1.85;;;29.90;48.70;;;;;;4899413;29;20036;-81
2023/07/08 14:27:03;;;;;;;3.88;1.75;;;30.00;48.80;;;;;;4888466;29;20064;-81
2023/07/08 14:29:29;;;;;;;4.80;1.70;;;30.00;48.50;;;;;;4896385;29;20024;-81
2023/07/08 14:31:54;;;;;;;4.95;2.03;;;30.00;48.20;;;;;;4897256;29;20057;-81
2023/07/08 14:34:25;;;;;;;5.05;2.20;;;30.10;48.40;;;;;;4898566;29;20093;-80
2023/07/08 14:36:52;;;;;;;4.10;1.85;;;30.10;47.00;;;;;;4885564;29;20052;-81
2023/07/08 14:39:18;;;;;;;3.47;1.60;;;30.20;46.40;;;;;;4899375;29;20115;-81
2023/07/08 14:41:46;;;;;;;6.00;1.80;;;30.10;47.10;;;;;;4889018;29;20056;-81
2023/07/08 14:44:25;;;;;;;4.75;1.75;;;30.00;47.20;;;;;;4880473;29;20044;-81
2023/07/08 14:46:51;;;;;;;4.82;1.90;;;29.90;46.40;;;;;;4881877;29;20029;-82
2023/07/08 14:49:20;;;;;;;3.72;1.70;;;29.80;46.80;;;;;;4896160;29;20040;-81
2023/07/08 14:51:45;;;;;;;3.80;1.55;;;29.70;46.30;;;;;;4889356;29;20032;-84
2023/07/08 14:54:11;;;;;;;4.30;1.50;;;29.70;46.80;;;;;;4898202;29;20044;-83
2023/07/08 14:56:38;;;;;;;3.20;1.60;;;29.70;46.60;;;;;;4898613;29;20024;-84
2023/07/08 14:59:04;;;;;;;4.35;2.17;;;29.60;47.20;;;;;;4895027;29;20079;-80
2023/07/08 15:01:31;;;;;;;3.95;1.80;;;29.50;47.00;;;;;;4888816;29;20028;-81
2023/07/08 15:03:57;;;;;;;3.83;2.00;;;29.50;47.50;;;;;;4898621;29;20039;-81
2023/07/08 15:06:23;;;;;;;2.80;1.33;;;29.50;47.30;;;;;;4896525;29;20017;-83
2023/07/08 15:08:49;;;;;;;4.70;1.90;;;29.50;47.10;;;;;;4885648;29;20032;-81
2023/07/08 15:11:15;;;;;;;4.95;2.00;;;29.60;47.20;;;;;;4892072;29;20028;-83
2023/07/08 15:13:45;;;;;;;4.05;1.90;;;29.80;47.70;;;;;;4881677;29;20125;-79
2023/07/08 15:16:15;;;;;;;4.80;1.95;;;29.80;47.30;;;;;;4885742;29;20021;-85
2023/07/08 15:18:42;;;;;;;5.40;2.00;;;29.80;47.50;;;;;;4892864;29;20116;-83
2023/07/08 15:21:15;;;;;;;6.07;1.92;;;29.70;48.10;;;;;;4898473;29;20035;-84
2023/07/08 15:23:41;;;;;;;4.28;1.85;;;29.70;48.00;;;;;;4912935;29;20032;-82
2023/07/08 15:26:11;;;;;;;3.78;1.80;;;29.70;48.60;;;;;;4905915;29;20039;-83
2023/07/08 15:28:49;;;;;;;4.25;1.90;;;29.60;48.60;;;;;;4886873;29;20052;-84
2023/07/08 15:31:25;;;;;;;6.20;1.90;;;29.60;48.60;;;;;;4893749;29;20048;-82
2023/07/08 15:33:54;;;;;;;5.13;1.98;;;29.70;48.70;;;;;;4918857;29;20111;-82
2023/07/08 15:36:20;;;;;;;4.03;1.75;;;29.80;48.30;;;;;;4918706;29;20028;-83
2023/07/08 15:38:46;;;;;;;4.32;1.98;;;29.80;47.50;;;;;;4906460;29;20051;-83
2023/07/08 15:41:26;;;;;;;5.55;2.45;;;29.70;47.40;;;;;;4901605;29;20067;-83
2023/07/08 15:43:56;;;;;;;4.20;1.67;;;29.60;47.90;;;;;;4911783;29;20033;-83
2023/07/08 15:46:22;;;;;;;3.90;1.92;;;29.60;47.60;;;;;;4907780;29;20032;-83
2023/07/08 15:48:48;;;;;;;3.85;2.05;;;29.50;47.70;;;;;;4905733;29;20039;-83
2023/07/08 15:51:15;;;;;;;5.80;1.98;;;29.70;47.60;;;;;;4905543;29;20024;-83
2023/07/08 15:53:41;;;;;;;4.43;1.75;;;29.50;47.80;;;;;;4901078;29;20117;-82
2023/07/08 15:56:15;;;;;;;4.13;1.95;;;29.30;48.00;;;;;;4888356;29;20032;-83
2023/07/08 15:58:42;;;;;;;3.47;1.60;;;29.30;48.40;;;;;;4920382;29;20064;-87
2023/07/08 16:01:17;;;;;;;3.92;1.95;;;29.20;48.20;;;;;;4902582;29;20028;-83
2023/07/08 16:03:43;;;;;;;3.42;1.70;;;29.20;48.00;;;;;;4913111;29;20028;-83
2023/07/08 16:06:09;;;;;;;3.53;1.70;;;29.20;48.60;;;;;;4920910;29;20035;-82
2023/07/08 16:08:35;;;;;;;4.30;1.67;;;29.20;48.50;;;;;;4921538;29;20032;-83
2023/07/08 16:11:04;;;;;;;4.13;1.50;;;29.00;48.10;;;;;;4911932;29;20114;-83
2023/07/08 16:13:33;;;;;;;4.60;1.85;;;28.80;48.60;;;;;;4907094;29;20024;-81
2023/07/08 16:16:00;;;;;;;3.85;1.70;;;28.80;48.60;;;;;;4921860;29;20020;-82
2023/07/08 16:19:11;;;;;;;4.68;1.70;;;28.80;49.50;;;;;;4907825;29;20036;-83
2023/07/08 16:29:02;;;;;;;4.22;2.00;;;29.10;48.00;;;;;;5374232;23;20111;-81
2023/07/08 16:31:28;;;;;;;3.88;1.60;;;29.50;48.10;;;;;;4887324;29;20419;-83
2023/07/08 16:33:57;;;;;;;3.70;1.88;;;29.30;48.00;;;;;;4915529;29;20134;-83
2023/07/08 16:36:27;;;;;;;4.60;1.70;;;29.50;48.20;;;;;;4903011;29;20063;-85
2023/07/08 16:38:54;;;;;;;4.13;1.88;;;29.40;48.60;;;;;;4906116;29;20474;-83
2023/07/08 16:41:22;;;;;;;4.53;1.90;;;29.40;48.40;;;;;;4913479;29;20081;-82
2023/07/08 16:43:49;;;;;;;5.70;1.85;;;29.20;48.30;;;;;;4901801;29;20100;-82
2023/07/08 16:46:18;;;;;;;4.10;1.92;;;29.20;48.40;;;;;;4922660;29;20506;-79
2023/07/08 16:48:43;;;;;;;5.10;1.85;;;29.30;48.20;;;;;;4885342;29;20028;-80
2023/07/08 16:51:14;;;;;;;4.25;1.50;;;29.50;47.80;;;;;;4902310;29;20068;-80
2023/07/08 16:53:39;;;;;;;3.38;1.65;;;29.40;46.30;;;;;;4901692;29;20035;-83
2023/07/08 16:56:21;;;;;;;3.70;1.60;;;29.30;47.10;;;;;;4914783;29;20036;-81
2023/07/08 16:59:05;;;;;;;4.03;1.90;;;29.40;47.60;;;;;;4903249;29;20028;-83
2023/07/08 17:01:31;;;;;;;4.93;1.73;;;29.30;47.70;;;;;;4913777;29;20036;-85
2023/07/08 17:03:58;;;;;;;4.72;1.80;;;29.00;47.90;;;;;;4891920;29;20028;-85
2023/07/08 17:06:24;;;;;;;3.70;1.70;;;28.80;48.40;;;;;;4903388;29;20032;-80
2023/07/08 17:08:50;;;;;;;4.38;1.50;;;28.50;46.90;;;;;;4907053;29;20541;-81
2023/07/08 17:11:16;;;;;;;4.10;1.30;;;28.50;46.30;;;;;;4918318;29;20036;-87
2023/07/08 17:13:42;;;;;;;4.45;1.70;;;28.50;45.90;;;;;;4920794;29;20064;-78
2023/07/08 17:16:13;;;;;;;3.47;1.33;;;28.50;46.70;;;;;;4910907;29;20032;-89
2023/07/08 17:18:39;;;;;;;4.67;1.20;;;28.40;46.90;;;;;;4915776;29;20036;-81
2023/07/08 17:21:12;;;;;;;3.28;1.60;;;28.40;45.90;;;;;;4885358;29;20039;-80
2023/07/08 17:23:38;;;;;;;5.93;1.67;;;28.60;46.20;;;;;;4903196;29;20510;-79
2023/07/08 17:26:03;;;;;;;3.17;1.27;;;28.60;46.00;;;;;;4901666;29;20024;-78
2023/07/08 17:28:29;;;;;;;3.45;1.40;;;28.60;46.30;;;;;;4907738;29;20056;-79
2023/07/08 17:31:09;;;;;;;5.13;1.70;;;28.70;46.60;;;;;;4918383;29;20103;-89
2023/07/08 17:33:35;;;;;;;3.45;1.40;;;28.60;47.30;;;;;;4904780;29;20526;-83
2023/07/08 17:36:08;;;;;;;3.53;1.88;;;28.40;47.10;;;;;;4903930;29;20036;-84
2023/07/08 17:38:46;;;;;;;3.80;1.58;;;28.30;48.10;;;;;;4889584;29;20099;-82
2023/07/08 17:41:37;;;;;;;4.30;1.50;;;28.20;49.00;;;;;;4899351;29;20051;-87